windsock image

Welcome to Bigfield Strip.

anemometer image
     

 Help for dials.  
 
Local Met:

Wind:   
10 Min average:  
184 ° / 1.2 kts (0.9)
184° / 1.3

Temperature:  
4.1°C C
Dew Point:  
1.8°C C
QNH:  
Trend:  
1023.5 mb mb
-0.3mb/hr
BigField Strip. This image updates approximately every minute, it can have a two minute delay.  
 

Humidity:  
85 %
Sunrise:   05:05z
Sunset:   19:02z
Updated:  
  UTC
 
   More met info, trends, radar, history etc. available here   

LUTON Metar   EGGW 162120Z 16005KT CAVOK 08/M03 Q1024
 
  TAF   2014/04/16 18:15 TAF EGGW 161658Z 1618/1718 20009KT 9999 FEW040 PROB30 TEMPO 1700/1707 8000 BECMG 1710/1713 27010KT BECMG 1715/1718 33010KT
 
BENSON Metar   EGUB 162050Z 13004KT CAVOK 06/M02 Q1024 BLU NOSIG
 
  TAF   2014/04/16 21:03 TAF TAF EGUB 161923Z 1621/1701 18008KT CAVOK
 
Big Field view 1 icon   Big Field view 2 icon   Big Field view 3 icon   Chart AL3a in PDF icon   Chart AL3a in Word icon

WARNING:
This information is provided by the Airstrip unofficial weather station, DO NOT depend on the data provided here for any purpose.
This page is updated for latest Metars & TAF's every 5 minutes. Refresh the browser to check for the lastest.
Page designed for a minimum browser size of 1024x768.
© Copyright 2014 BigField Strip. This page auto generated 21:51 UTC - 16/04/2014   Contact Us
Valid HTML 4.01 Transitional     Windows uptime: 2 Days 14 Hours 12 Minutes 3 Seconds    WD started: 07:45 14/04/14    Free memory: 1538MB     Valid CSS!